Wardeh — ODUS — position and weather

sailwx.info

Track history (hours):
 
Tides and Currents Weather Stations Pressure Air Temp Water Temp Dewpoint Dewpoint Depression Visibility Wind Speed Wind Dir Waves Ship Positions

Wardeh

Last reported at 2017-Jan-18 15:32 UTC. Time now 2017-Jan-20 05:51 UTC.
Position N 37°14' W 001°09'.

; draft 7.3 m.

Type: Cargo ship. MMSI: 450522000.

Date/timePositionNaut miles runAvg speedWind from/ knotsBaromVisibWave heightAir tempDewpointWater temp
2017-Jan-18 15:32N 37°14' W 001°09'2 0.1
2017-Jan-18 01:28N 37°13' W 001°07'1 1.1
2017-Jan-18 00:28N 37°13' W 001°06'1 0.9
2017-Jan-17 23:27N 37°13' W 001°05'2 1.7
2017-Jan-17 22:27N 37°12' W 001°02'4 1.9
2017-Jan-17 20:33N 37°14' W 000°58'2 1.8
2017-Jan-17 19:33N 37°15' W 000°56'2 2.1
2017-Jan-17 18:21N 37°17' W 000°54'2 2.4
2017-Jan-17 17:30N 37°15' W 000°52'13 9.1
2017-Jan-17 16:05N 37°02' W 000°50'  
2017-Jan-15 08:22N 36°59' W 000°54'11 0.3
2017-Jan-13 12:33N 36°56' W 001°08'1514.4
2017-Jan-13 11:31N 37°04' W 000°52'2713.5
2017-Jan-13 09:32N 37°18' W 000°24'4 3.7
2017-Jan-13 08:28N 37°19' W 000°19'1 1.3
2017-Jan-13 07:23N 37°18' W 000°20'1 1.4
2017-Jan-13 06:29N 37°17' W 000°21'15 1.2
2017-Jan-12 18:04N 37°13' W 000°39'2 1.9
2017-Jan-12 17:10N 37°13' W 000°42'1 1.9
2017-Jan-12 16:28N 37°13' W 000°43'2 1.9
2017-Jan-12 15:28N 37°13' W 000°46'2 1.7
2017-Jan-12 14:29N 37°13' W 000°48'3 1.7
2017-Jan-12 12:29N 37°13' W 000°52'1 1.4
2017-Jan-12 11:29N 37°13' W 000°54'2 1.2
2017-Jan-12 10:04N 37°13' W 000°56'2 0.9
2017-Jan-12 08:10N 37°14' W 000°57'1 0.9
2017-Jan-12 07:28N 37°14' W 000°58'1 1.0
2017-Jan-12 06:28N 37°15' W 000°59'1 1.0
2017-Jan-12 05:28N 37°16' W 000°59'1 0.6
2017-Jan-12 04:28N 37°17' W 000°60'1 0.6
2017-Jan-12 03:16N 37°17' W 000°59'1 0.7
2017-Jan-12 02:22N 37°18' W 000°59'1 0.6
2017-Jan-12 01:29N 37°18' W 000°59'1 0.7
2017-Jan-12 00:23N 37°19' W 000°58'1 0.8
2017-Jan-11 23:23N 37°19' W 000°57'1 1.0
2017-Jan-11 22:23N 37°20' W 000°56'2 1.2
2017-Jan-11 20:28N 37°21' W 000°53'2 1.4
2017-Jan-11 19:22N 37°22' W 000°52'1 1.5
2017-Jan-11 18:28N 37°22' W 000°50'2 1.6
2017-Jan-11 17:28N 37°23' W 000°48'8 8.9
2017-Jan-11 16:33N 37°24' W 000°38'1515.1
2017-Jan-11 15:33N 37°26' W 000°19'  
Track history (hours):
 
Tides and Currents Weather Stations Pressure Air Temp Water Temp Dewpoint Dewpoint Depression Visibility Wind Speed Wind Dir Waves Ship Positions

Wardeh

Last reported at 2017-Jan-18 15:32 UTC. Time now 2017-Jan-20 05:51 UTC.
Position N 37°14' W 001°09'.

; draft 7.3 m.

Type: Cargo ship. MMSI: 450522000.

Date/timePositionNaut miles runAvg speedWind from/ knotsBaromVisibWave heightAir tempDewpointWater temp
2017-Jan-18 15:32N 37°14' W 001°09'2 0.1
2017-Jan-18 01:28N 37°13' W 001°07'1 1.1
2017-Jan-18 00:28N 37°13' W 001°06'1 0.9
2017-Jan-17 23:27N 37°13' W 001°05'2 1.7
2017-Jan-17 22:27N 37°12' W 001°02'4 1.9
2017-Jan-17 20:33N 37°14' W 000°58'2 1.8
2017-Jan-17 19:33N 37°15' W 000°56'2 2.1
2017-Jan-17 18:21N 37°17' W 000°54'2 2.4
2017-Jan-17 17:30N 37°15' W 000°52'13 9.1
2017-Jan-17 16:05N 37°02' W 000°50'  
2017-Jan-15 08:22N 36°59' W 000°54'11 0.3
2017-Jan-13 12:33N 36°56' W 001°08'1514.4
2017-Jan-13 11:31N 37°04' W 000°52'2713.5
2017-Jan-13 09:32N 37°18' W 000°24'4 3.7
2017-Jan-13 08:28N 37°19' W 000°19'1 1.3
2017-Jan-13 07:23N 37°18' W 000°20'1 1.4
2017-Jan-13 06:29N 37°17' W 000°21'15 1.2
2017-Jan-12 18:04N 37°13' W 000°39'2 1.9
2017-Jan-12 17:10N 37°13' W 000°42'1 1.9
2017-Jan-12 16:28N 37°13' W 000°43'2 1.9
2017-Jan-12 15:28N 37°13' W 000°46'2 1.7
2017-Jan-12 14:29N 37°13' W 000°48'3 1.7
2017-Jan-12 12:29N 37°13' W 000°52'1 1.4
2017-Jan-12 11:29N 37°13' W 000°54'2 1.2
2017-Jan-12 10:04N 37°13' W 000°56'2 0.9
2017-Jan-12 08:10N 37°14' W 000°57'1 0.9
2017-Jan-12 07:28N 37°14' W 000°58'1 1.0
2017-Jan-12 06:28N 37°15' W 000°59'1 1.0
2017-Jan-12 05:28N 37°16' W 000°59'1 0.6
2017-Jan-12 04:28N 37°17' W 000°60'1 0.6
2017-Jan-12 03:16N 37°17' W 000°59'1 0.7
2017-Jan-12 02:22N 37°18' W 000°59'1 0.6
2017-Jan-12 01:29N 37°18' W 000°59'1 0.7
2017-Jan-12 00:23N 37°19' W 000°58'1 0.8
2017-Jan-11 23:23N 37°19' W 000°57'1 1.0
2017-Jan-11 22:23N 37°20' W 000°56'2 1.2
2017-Jan-11 20:28N 37°21' W 000°53'2 1.4
2017-Jan-11 19:22N 37°22' W 000°52'1 1.5
2017-Jan-11 18:28N 37°22' W 000°50'2 1.6
2017-Jan-11 17:28N 37°23' W 000°48'8 8.9
2017-Jan-11 16:33N 37°24' W 000°38'1515.1
2017-Jan-11 15:33N 37°26' W 000°19'  

Dump ship's entire track history